Terminal Aerodrome Forecast
Issued by NWS

Home | Current Version | Previous Version | Text Only | Print | Product List | Glossary On
Versions: 1 2 3 4 5 6 7 8 9 10 11 12 13 14 15 16 17 18 19 20 21 22 23 24 25 26 27 28 29 30 31 32 33 34 35 36 37 38 39 40
000
FTUS41 KGYX 240530
TAFHIE
TAF
KHIE 240530Z 2406/2506 04009G16KT P6SM OVC090 WS015/09040KT
     FM240700 09014KT 2SM -SN OVC015 WS015/09050KT
      TEMPO 2407/2411 3/4SM -SN BR OVC010
     FM241100 08019G28KT 2SM -SNPL OVC007
     FM241500 08020G29KT 3SM -FZRAPL OVC015
     FM241800 07016G24KT 1SM -FZRA BR OVC015=

USA.gov is the U.S. government's official web portal to all federal, state and local government web resources and services.